sensor_id;sensor_type;location;lat;lon;timestamp;P1;durP1;ratioP1;P2;durP2;ratioP2
10811;SDS011;5458;51.496;7.334;2022-11-14T00:02:16;9.02;;;7.60;;
10811;SDS011;5458;51.496;7.334;2022-11-14T00:04:45;7.80;;;6.97;;
10811;SDS011;5458;51.496;7.334;2022-11-14T00:07:13;8.50;;;7.75;;
10811;SDS011;5458;51.496;7.334;2022-11-14T00:09:39;7.47;;;6.80;;
10811;SDS011;5458;51.496;7.334;2022-11-14T00:12:07;7.90;;;7.20;;
10811;SDS011;5458;51.496;7.334;2022-11-14T00:14:34;9.18;;;8.27;;
10811;SDS011;5458;51.496;7.334;2022-11-14T00:17:00;9.48;;;8.02;;
10811;SDS011;5458;51.496;7.334;2022-11-14T00:19:26;8.90;;;8.07;;
10811;SDS011;5458;51.496;7.334;2022-11-14T00:21:51;9.25;;;7.60;;
10811;SDS011;5458;51.496;7.334;2022-11-14T00:24:17;12.20;;;7.93;;
10811;SDS011;5458;51.496;7.334;2022-11-14T00:26:43;8.32;;;7.53;;
10811;SDS011;5458;51.496;7.334;2022-11-14T00:29:10;9.45;;;8.65;;
10811;SDS011;5458;51.496;7.334;2022-11-14T00:31:36;8.63;;;7.72;;
10811;SDS011;5458;51.496;7.334;2022-11-14T00:34:01;9.90;;;8.65;;
10811;SDS011;5458;51.496;7.334;2022-11-14T00:36:27;8.55;;;7.70;;
10811;SDS011;5458;51.496;7.334;2022-11-14T00:38:53;9.50;;;8.52;;
10811;SDS011;5458;51.496;7.334;2022-11-14T00:41:19;8.52;;;7.55;;
10811;SDS011;5458;51.496;7.334;2022-11-14T00:43:45;9.25;;;8.13;;
10811;SDS011;5458;51.496;7.334;2022-11-14T00:46:11;16.33;;;9.05;;
10811;SDS011;5458;51.496;7.334;2022-11-14T00:48:36;10.75;;;9.23;;
10811;SDS011;5458;51.496;7.334;2022-11-14T00:51:02;8.65;;;7.72;;
10811;SDS011;5458;51.496;7.334;2022-11-14T00:53:28;10.45;;;8.77;;
10811;SDS011;5458;51.496;7.334;2022-11-14T00:55:53;8.80;;;8.00;;
10811;SDS011;5458;51.496;7.334;2022-11-14T00:58:19;10.57;;;9.48;;
10811;SDS011;5458;51.496;7.334;2022-11-14T01:00:44;11.13;;;9.07;;
10811;SDS011;5458;51.496;7.334;2022-11-14T01:03:10;8.38;;;7.57;;
10811;SDS011;5458;51.496;7.334;2022-11-14T01:05:39;8.90;;;7.72;;
10811;SDS011;5458;51.496;7.334;2022-11-14T01:08:06;8.88;;;8.02;;
10811;SDS011;5458;51.496;7.334;2022-11-14T01:10:32;11.20;;;8.90;;
10811;SDS011;5458;51.496;7.334;2022-11-14T01:12:57;12.20;;;9.20;;
10811;SDS011;5458;51.496;7.334;2022-11-14T01:15:23;9.50;;;8.40;;
10811;SDS011;5458;51.496;7.334;2022-11-14T01:17:48;11.27;;;8.90;;
10811;SDS011;5458;51.496;7.334;2022-11-14T01:20:14;9.48;;;8.15;;
10811;SDS011;5458;51.496;7.334;2022-11-14T01:22:40;9.32;;;8.52;;
10811;SDS011;5458;51.496;7.334;2022-11-14T01:25:06;10.10;;;8.88;;
10811;SDS011;5458;51.496;7.334;2022-11-14T01:27:32;8.63;;;7.80;;
10811;SDS011;5458;51.496;7.334;2022-11-14T01:29:57;11.13;;;8.55;;
10811;SDS011;5458;51.496;7.334;2022-11-14T01:32:24;11.00;;;8.95;;
10811;SDS011;5458;51.496;7.334;2022-11-14T01:34:50;10.05;;;9.00;;
10811;SDS011;5458;51.496;7.334;2022-11-14T01:37:15;10.80;;;9.43;;
10811;SDS011;5458;51.496;7.334;2022-11-14T01:39:41;8.30;;;7.57;;
10811;SDS011;5458;51.496;7.334;2022-11-14T01:42:06;9.30;;;8.30;;
10811;SDS011;5458;51.496;7.334;2022-11-14T01:44:46;9.63;;;7.93;;
10811;SDS011;5458;51.496;7.334;2022-11-14T01:47:15;9.13;;;8.23;;
10811;SDS011;5458;51.496;7.334;2022-11-14T01:49:45;9.18;;;8.05;;
10811;SDS011;5458;51.496;7.334;2022-11-14T01:52:13;8.70;;;7.85;;
10811;SDS011;5458;51.496;7.334;2022-11-14T01:54:47;9.98;;;7.60;;
10811;SDS011;5458;51.496;7.334;2022-11-14T01:57:16;9.88;;;8.27;;
10811;SDS011;5458;51.496;7.334;2022-11-14T01:59:47;9.68;;;8.63;;
10811;SDS011;5458;51.496;7.334;2022-11-14T02:02:17;9.20;;;8.30;;
10811;SDS011;5458;51.496;7.334;2022-11-14T02:04:49;8.80;;;7.93;;
10811;SDS011;5458;51.496;7.334;2022-11-14T02:07:19;9.88;;;8.88;;
10811;SDS011;5458;51.496;7.334;2022-11-14T02:09:45;10.23;;;8.73;;
10811;SDS011;5458;51.496;7.334;2022-11-14T02:12:13;10.20;;;9.10;;
10811;SDS011;5458;51.496;7.334;2022-11-14T02:14:41;9.20;;;8.30;;
10811;SDS011;5458;51.496;7.334;2022-11-14T02:17:09;12.32;;;8.00;;
10811;SDS011;5458;51.496;7.334;2022-11-14T02:19:39;10.05;;;9.05;;
10811;SDS011;5458;51.496;7.334;2022-11-14T02:22:06;12.25;;;9.80;;
10811;SDS011;5458;51.496;7.334;2022-11-14T02:24:32;15.30;;;11.13;;
10811;SDS011;5458;51.496;7.334;2022-11-14T02:26:57;10.13;;;9.15;;
10811;SDS011;5458;51.496;7.334;2022-11-14T02:29:23;10.05;;;9.05;;
10811;SDS011;5458;51.496;7.334;2022-11-14T02:31:48;10.70;;;9.60;;
10811;SDS011;5458;51.496;7.334;2022-11-14T02:34:14;10.80;;;9.20;;
10811;SDS011;5458;51.496;7.334;2022-11-14T02:36:43;10.77;;;9.43;;
10811;SDS011;5458;51.496;7.334;2022-11-14T02:39:09;12.77;;;9.05;;
10811;SDS011;5458;51.496;7.334;2022-11-14T02:41:35;9.80;;;8.70;;
10811;SDS011;5458;51.496;7.334;2022-11-14T02:44:00;10.07;;;9.07;;
10811;SDS011;5458;51.496;7.334;2022-11-14T02:46:26;9.63;;;8.35;;
10811;SDS011;5458;51.496;7.334;2022-11-14T02:48:51;10.52;;;8.77;;
10811;SDS011;5458;51.496;7.334;2022-11-14T02:51:17;10.48;;;9.35;;
10811;SDS011;5458;51.496;7.334;2022-11-14T02:53:42;9.20;;;8.35;;
10811;SDS011;5458;51.496;7.334;2022-11-14T02:56:08;11.75;;;9.63;;
10811;SDS011;5458;51.496;7.334;2022-11-14T02:58:33;13.45;;;9.85;;
10811;SDS011;5458;51.496;7.334;2022-11-14T03:00:59;10.38;;;9.27;;
10811;SDS011;5458;51.496;7.334;2022-11-14T03:03:24;10.43;;;8.52;;
10811;SDS011;5458;51.496;7.334;2022-11-14T03:05:50;10.20;;;9.02;;
10811;SDS011;5458;51.496;7.334;2022-11-14T03:08:17;11.48;;;9.07;;
10811;SDS011;5458;51.496;7.334;2022-11-14T03:10:44;10.60;;;8.93;;
10811;SDS011;5458;51.496;7.334;2022-11-14T03:13:10;10.15;;;9.13;;
10811;SDS011;5458;51.496;7.334;2022-11-14T03:15:36;11.00;;;9.95;;
10811;SDS011;5458;51.496;7.334;2022-11-14T03:18:02;10.57;;;9.48;;
10811;SDS011;5458;51.496;7.334;2022-11-14T03:20:27;11.50;;;8.90;;
10811;SDS011;5458;51.496;7.334;2022-11-14T03:22:53;9.57;;;8.68;;
10811;SDS011;5458;51.496;7.334;2022-11-14T03:25:18;10.00;;;9.00;;
10811;SDS011;5458;51.496;7.334;2022-11-14T03:27:44;9.77;;;8.85;;
10811;SDS011;5458;51.496;7.334;2022-11-14T03:30:09;9.38;;;8.50;;
10811;SDS011;5458;51.496;7.334;2022-11-14T03:32:35;10.02;;;8.88;;
10811;SDS011;5458;51.496;7.334;2022-11-14T03:35:01;10.10;;;9.10;;
10811;SDS011;5458;51.496;7.334;2022-11-14T03:37:27;10.80;;;9.80;;
10811;SDS011;5458;51.496;7.334;2022-11-14T03:39:52;11.13;;;8.75;;
10811;SDS011;5458;51.496;7.334;2022-11-14T03:42:18;12.70;;;9.07;;
10811;SDS011;5458;51.496;7.334;2022-11-14T03:44:43;9.65;;;8.68;;
10811;SDS011;5458;51.496;7.334;2022-11-14T03:47:09;10.70;;;9.40;;
10811;SDS011;5458;51.496;7.334;2022-11-14T03:49:34;10.43;;;9.30;;
10811;SDS011;5458;51.496;7.334;2022-11-14T03:52:00;13.07;;;9.07;;
10811;SDS011;5458;51.496;7.334;2022-11-14T03:54:25;10.77;;;9.73;;
10811;SDS011;5458;51.496;7.334;2022-11-14T03:56:51;10.38;;;9.32;;
10811;SDS011;5458;51.496;7.334;2022-11-14T03:59:17;9.98;;;9.10;;
10811;SDS011;5458;51.496;7.334;2022-11-14T04:01:42;9.95;;;9.05;;
10811;SDS011;5458;51.496;7.334;2022-11-14T04:04:12;8.75;;;7.78;;
10811;SDS011;5458;51.496;7.334;2022-11-14T04:06:37;10.43;;;8.77;;
10811;SDS011;5458;51.496;7.334;2022-11-14T04:09:03;10.02;;;8.98;;
10811;SDS011;5458;51.496;7.334;2022-11-14T04:11:29;11.73;;;9.50;;
10811;SDS011;5458;51.496;7.334;2022-11-14T04:13:54;12.55;;;9.27;;
10811;SDS011;5458;51.496;7.334;2022-11-14T04:16:20;11.68;;;9.40;;
10811;SDS011;5458;51.496;7.334;2022-11-14T04:18:45;11.60;;;9.95;;
10811;SDS011;5458;51.496;7.334;2022-11-14T04:21:11;11.02;;;9.90;;
10811;SDS011;5458;51.496;7.334;2022-11-14T04:23:36;11.35;;;10.25;;
10811;SDS011;5458;51.496;7.334;2022-11-14T04:26:02;10.93;;;9.93;;
10811;SDS011;5458;51.496;7.334;2022-11-14T04:28:27;14.57;;;10.10;;
10811;SDS011;5458;51.496;7.334;2022-11-14T04:30:53;14.73;;;11.47;;
10811;SDS011;5458;51.496;7.334;2022-11-14T04:33:18;16.73;;;10.70;;
10811;SDS011;5458;51.496;7.334;2022-11-14T04:35:44;12.10;;;10.67;;
10811;SDS011;5458;51.496;7.334;2022-11-14T04:38:10;12.38;;;11.02;;
10811;SDS011;5458;51.496;7.334;2022-11-14T04:40:35;16.95;;;12.32;;
10811;SDS011;5458;51.496;7.334;2022-11-14T04:43:01;13.38;;;10.07;;
10811;SDS011;5458;51.496;7.334;2022-11-14T04:45:26;12.45;;;10.30;;
10811;SDS011;5458;51.496;7.334;2022-11-14T04:47:52;11.43;;;10.10;;
10811;SDS011;5458;51.496;7.334;2022-11-14T04:50:17;13.43;;;10.35;;
10811;SDS011;5458;51.496;7.334;2022-11-14T04:52:43;12.98;;;10.60;;
10811;SDS011;5458;51.496;7.334;2022-11-14T04:55:09;10.63;;;9.65;;
10811;SDS011;5458;51.496;7.334;2022-11-14T04:57:34;12.63;;;10.48;;
10811;SDS011;5458;51.496;7.334;2022-11-14T05:00:00;12.20;;;10.95;;
10811;SDS011;5458;51.496;7.334;2022-11-14T05:02:26;13.80;;;12.27;;
10811;SDS011;5458;51.496;7.334;2022-11-14T05:04:56;15.57;;;12.52;;
10811;SDS011;5458;51.496;7.334;2022-11-14T05:07:21;17.15;;;12.50;;
10811;SDS011;5458;51.496;7.334;2022-11-14T05:09:47;15.32;;;12.23;;
10811;SDS011;5458;51.496;7.334;2022-11-14T05:12:12;19.58;;;13.05;;
10811;SDS011;5458;51.496;7.334;2022-11-14T05:14:38;17.08;;;12.45;;
10811;SDS011;5458;51.496;7.334;2022-11-14T05:17:03;15.60;;;11.80;;
10811;SDS011;5458;51.496;7.334;2022-11-14T05:19:29;13.45;;;11.25;;
10811;SDS011;5458;51.496;7.334;2022-11-14T05:21:55;15.93;;;12.43;;
10811;SDS011;5458;51.496;7.334;2022-11-14T05:24:20;13.38;;;11.98;;
10811;SDS011;5458;51.496;7.334;2022-11-14T05:26:46;13.25;;;11.90;;
10811;SDS011;5458;51.496;7.334;2022-11-14T05:29:11;13.50;;;11.03;;
10811;SDS011;5458;51.496;7.334;2022-11-14T05:31:37;13.52;;;11.27;;
10811;SDS011;5458;51.496;7.334;2022-11-14T05:34:02;15.13;;;11.98;;
10811;SDS011;5458;51.496;7.334;2022-11-14T05:36:28;15.90;;;12.40;;
10811;SDS011;5458;51.496;7.334;2022-11-14T05:38:53;14.82;;;11.70;;
10811;SDS011;5458;51.496;7.334;2022-11-14T05:41:19;19.20;;;12.85;;
10811;SDS011;5458;51.496;7.334;2022-11-14T05:43:44;13.82;;;12.30;;
10811;SDS011;5458;51.496;7.334;2022-11-14T05:46:11;15.25;;;12.68;;
10811;SDS011;5458;51.496;7.334;2022-11-14T05:48:38;15.77;;;12.55;;
10811;SDS011;5458;51.496;7.334;2022-11-14T05:51:04;14.53;;;12.40;;
10811;SDS011;5458;51.496;7.334;2022-11-14T05:53:31;17.73;;;13.27;;
10811;SDS011;5458;51.496;7.334;2022-11-14T05:56:04;13.98;;;12.23;;
10811;SDS011;5458;51.496;7.334;2022-11-14T05:58:33;14.98;;;13.25;;
10811;SDS011;5458;51.496;7.334;2022-11-14T06:03:33;14.57;;;12.20;;
10811;SDS011;5458;51.496;7.334;2022-11-14T06:06:04;14.50;;;12.40;;
10811;SDS011;5458;51.496;7.334;2022-11-14T06:08:31;14.73;;;11.53;;
10811;SDS011;5458;51.496;7.334;2022-11-14T06:11:04;16.13;;;13.10;;
10811;SDS011;5458;51.496;7.334;2022-11-14T06:13:34;14.25;;;12.13;;
10811;SDS011;5458;51.496;7.334;2022-11-14T06:16:01;14.27;;;12.25;;
10811;SDS011;5458;51.496;7.334;2022-11-14T06:18:30;15.88;;;13.32;;
10811;SDS011;5458;51.496;7.334;2022-11-14T06:21:00;12.50;;;11.20;;
10811;SDS011;5458;51.496;7.334;2022-11-14T06:23:27;14.75;;;11.95;;
10811;SDS011;5458;51.496;7.334;2022-11-14T06:26:00;23.13;;;13.45;;
10811;SDS011;5458;51.496;7.334;2022-11-14T06:28:30;22.42;;;13.23;;
10811;SDS011;5458;51.496;7.334;2022-11-14T06:30:56;18.17;;;13.27;;
10811;SDS011;5458;51.496;7.334;2022-11-14T06:33:23;16.87;;;12.70;;
10811;SDS011;5458;51.496;7.334;2022-11-14T06:35:49;20.95;;;13.70;;
10811;SDS011;5458;51.496;7.334;2022-11-14T06:38:15;18.73;;;13.93;;
10811;SDS011;5458;51.496;7.334;2022-11-14T06:40:41;17.50;;;12.63;;
10811;SDS011;5458;51.496;7.334;2022-11-14T06:43:06;17.83;;;13.57;;
10811;SDS011;5458;51.496;7.334;2022-11-14T06:45:32;17.42;;;12.48;;
10811;SDS011;5458;51.496;7.334;2022-11-14T06:47:58;16.80;;;13.00;;
10811;SDS011;5458;51.496;7.334;2022-11-14T06:50:24;20.33;;;13.73;;
10811;SDS011;5458;51.496;7.334;2022-11-14T06:52:50;16.90;;;12.85;;
10811;SDS011;5458;51.496;7.334;2022-11-14T06:55:15;17.52;;;13.40;;
10811;SDS011;5458;51.496;7.334;2022-11-14T06:57:41;19.35;;;14.10;;
10811;SDS011;5458;51.496;7.334;2022-11-14T07:00:07;28.30;;;14.32;;
10811;SDS011;5458;51.496;7.334;2022-11-14T07:02:32;23.45;;;13.40;;
10811;SDS011;5458;51.496;7.334;2022-11-14T07:04:58;19.98;;;13.23;;
10811;SDS011;5458;51.496;7.334;2022-11-14T07:07:24;20.07;;;14.13;;
10811;SDS011;5458;51.496;7.334;2022-11-14T07:09:49;22.83;;;14.60;;
10811;SDS011;5458;51.496;7.334;2022-11-14T07:12:15;23.17;;;15.68;;
10811;SDS011;5458;51.496;7.334;2022-11-14T07:14:40;16.50;;;12.95;;
10811;SDS011;5458;51.496;7.334;2022-11-14T07:17:06;19.38;;;13.43;;
10811;SDS011;5458;51.496;7.334;2022-11-14T07:19:31;20.67;;;13.52;;
10811;SDS011;5458;51.496;7.334;2022-11-14T07:21:57;21.75;;;14.38;;
10811;SDS011;5458;51.496;7.334;2022-11-14T07:24:23;19.77;;;13.45;;
10811;SDS011;5458;51.496;7.334;2022-11-14T07:26:48;16.48;;;12.80;;
10811;SDS011;5458;51.496;7.334;2022-11-14T07:29:14;14.32;;;12.45;;
10811;SDS011;5458;51.496;7.334;2022-11-14T07:31:39;16.10;;;12.52;;
10811;SDS011;5458;51.496;7.334;2022-11-14T07:34:05;15.80;;;13.10;;
10811;SDS011;5458;51.496;7.334;2022-11-14T07:36:31;16.98;;;13.57;;
10811;SDS011;5458;51.496;7.334;2022-11-14T07:38:57;15.13;;;12.93;;
10811;SDS011;5458;51.496;7.334;2022-11-14T07:41:23;14.25;;;11.75;;
10811;SDS011;5458;51.496;7.334;2022-11-14T07:43:48;15.65;;;13.00;;
10811;SDS011;5458;51.496;7.334;2022-11-14T07:46:14;14.43;;;11.50;;
10811;SDS011;5458;51.496;7.334;2022-11-14T07:48:42;18.10;;;13.02;;
10811;SDS011;5458;51.496;7.334;2022-11-14T07:51:09;17.52;;;12.00;;
10811;SDS011;5458;51.496;7.334;2022-11-14T07:53:41;16.08;;;13.57;;
10811;SDS011;5458;51.496;7.334;2022-11-14T07:56:07;14.57;;;12.77;;
10811;SDS011;5458;51.496;7.334;2022-11-14T07:58:37;16.50;;;12.43;;
10811;SDS011;5458;51.496;7.334;2022-11-14T08:01:04;14.63;;;12.48;;
10811;SDS011;5458;51.496;7.334;2022-11-14T08:03:31;15.53;;;12.33;;
10811;SDS011;5458;51.496;7.334;2022-11-14T08:06:03;17.42;;;12.15;;
10811;SDS011;5458;51.496;7.334;2022-11-14T08:08:31;15.70;;;12.75;;
10811;SDS011;5458;51.496;7.334;2022-11-14T08:10:57;17.48;;;12.93;;
10811;SDS011;5458;51.496;7.334;2022-11-14T08:13:23;16.58;;;12.73;;
10811;SDS011;5458;51.496;7.334;2022-11-14T08:15:50;17.67;;;13.13;;
10811;SDS011;5458;51.496;7.334;2022-11-14T08:18:15;16.13;;;13.45;;
10811;SDS011;5458;51.496;7.334;2022-11-14T08:20:41;16.35;;;12.73;;
10811;SDS011;5458;51.496;7.334;2022-11-14T08:23:08;12.65;;;11.35;;
10811;SDS011;5458;51.496;7.334;2022-11-14T08:25:35;13.68;;;11.43;;
10811;SDS011;5458;51.496;7.334;2022-11-14T08:28:01;13.45;;;10.40;;
10811;SDS011;5458;51.496;7.334;2022-11-14T08:30:26;12.43;;;10.15;;
10811;SDS011;5458;51.496;7.334;2022-11-14T08:32:52;12.90;;;10.18;;
10811;SDS011;5458;51.496;7.334;2022-11-14T08:35:18;11.55;;;10.35;;
10811;SDS011;5458;51.496;7.334;2022-11-14T08:37:43;14.82;;;11.63;;
10811;SDS011;5458;51.496;7.334;2022-11-14T08:40:09;12.15;;;10.90;;
10811;SDS011;5458;51.496;7.334;2022-11-14T08:42:35;13.35;;;11.35;;
10811;SDS011;5458;51.496;7.334;2022-11-14T08:45:01;15.55;;;11.40;;
10811;SDS011;5458;51.496;7.334;2022-11-14T08:47:27;13.73;;;11.93;;
10811;SDS011;5458;51.496;7.334;2022-11-14T08:49:53;16.17;;;13.88;;
10811;SDS011;5458;51.496;7.334;2022-11-14T08:52:18;13.60;;;11.88;;
10811;SDS011;5458;51.496;7.334;2022-11-14T08:54:45;12.05;;;10.75;;
10811;SDS011;5458;51.496;7.334;2022-11-14T08:57:10;14.95;;;13.25;;
10811;SDS011;5458;51.496;7.334;2022-11-14T08:59:39;15.32;;;11.85;;
10811;SDS011;5458;51.496;7.334;2022-11-14T09:02:05;14.25;;;10.57;;
10811;SDS011;5458;51.496;7.334;2022-11-14T09:04:30;12.55;;;10.55;;
10811;SDS011;5458;51.496;7.334;2022-11-14T09:06:56;12.05;;;10.65;;
10811;SDS011;5458;51.496;7.334;2022-11-14T09:09:22;10.90;;;9.80;;
10811;SDS011;5458;51.496;7.334;2022-11-14T09:11:48;10.68;;;9.57;;
10811;SDS011;5458;51.496;7.334;2022-11-14T09:14:13;10.45;;;9.43;;
10811;SDS011;5458;51.496;7.334;2022-11-14T09:16:39;11.40;;;10.27;;
10811;SDS011;5458;51.496;7.334;2022-11-14T09:19:05;11.48;;;10.38;;
10811;SDS011;5458;51.496;7.334;2022-11-14T09:21:30;11.90;;;10.65;;
10811;SDS011;5458;51.496;7.334;2022-11-14T09:23:56;13.27;;;11.98;;
10811;SDS011;5458;51.496;7.334;2022-11-14T09:26:22;13.38;;;12.07;;
10811;SDS011;5458;51.496;7.334;2022-11-14T09:28:47;12.82;;;10.68;;
10811;SDS011;5458;51.496;7.334;2022-11-14T09:31:13;13.25;;;10.93;;
10811;SDS011;5458;51.496;7.334;2022-11-14T09:33:39;13.20;;;11.10;;
10811;SDS011;5458;51.496;7.334;2022-11-14T09:36:06;12.75;;;11.38;;
10811;SDS011;5458;51.496;7.334;2022-11-14T09:38:34;12.73;;;11.27;;
10811;SDS011;5458;51.496;7.334;2022-11-14T09:44:25;15.10;;;13.10;;
10811;SDS011;5458;51.496;7.334;2022-11-14T09:46:26;13.95;;;11.82;;
10811;SDS011;5458;51.496;7.334;2022-11-14T09:48:57;14.32;;;12.65;;
10811;SDS011;5458;51.496;7.334;2022-11-14T09:51:24;13.82;;;12.15;;
10811;SDS011;5458;51.496;7.334;2022-11-14T09:54:04;14.13;;;12.63;;
10811;SDS011;5458;51.496;7.334;2022-11-14T09:56:44;16.55;;;13.13;;
10811;SDS011;5458;51.496;7.334;2022-11-14T09:59:10;17.85;;;13.27;;
10811;SDS011;5458;51.496;7.334;2022-11-14T10:01:51;16.55;;;13.25;;
10811;SDS011;5458;51.496;7.334;2022-11-14T10:07:18;16.42;;;13.45;;
10811;SDS011;5458;51.496;7.334;2022-11-14T10:10:15;17.60;;;14.38;;
10811;SDS011;5458;51.496;7.334;2022-11-14T10:16:06;18.50;;;14.35;;
10811;SDS011;5458;51.496;7.334;2022-11-14T10:19:06;16.77;;;14.90;;
10811;SDS011;5458;51.496;7.334;2022-11-14T10:24:45;20.15;;;14.57;;
10811;SDS011;5458;51.496;7.334;2022-11-14T10:30:15;17.83;;;14.73;;
10811;SDS011;5458;51.496;7.334;2022-11-14T10:35:53;19.23;;;14.00;;
10811;SDS011;5458;51.496;7.334;2022-11-14T10:38:29;18.80;;;13.82;;
10811;SDS011;5458;51.496;7.334;2022-11-14T10:41:04;16.83;;;13.35;;
10811;SDS011;5458;51.496;7.334;2022-11-14T10:46:28;17.13;;;13.27;;
10811;SDS011;5458;51.496;7.334;2022-11-14T10:48:58;16.48;;;13.13;;
10811;SDS011;5458;51.496;7.334;2022-11-14T10:53:58;16.60;;;13.43;;
10811;SDS011;5458;51.496;7.334;2022-11-14T10:56:50;16.30;;;13.13;;
10811;SDS011;5458;51.496;7.334;2022-11-14T10:59:17;16.63;;;12.40;;
10811;SDS011;5458;51.496;7.334;2022-11-14T11:01:44;17.60;;;13.45;;
10811;SDS011;5458;51.496;7.334;2022-11-14T11:06:55;14.15;;;11.93;;
10811;SDS011;5458;51.496;7.334;2022-11-14T11:09:23;17.92;;;13.93;;
10811;SDS011;5458;51.496;7.334;2022-11-14T11:12:13;17.23;;;12.95;;
10811;SDS011;5458;51.496;7.334;2022-11-14T11:14:47;15.93;;;12.07;;
10811;SDS011;5458;51.496;7.334;2022-11-14T11:17:15;15.15;;;11.95;;
10811;SDS011;5458;51.496;7.334;2022-11-14T11:19:44;16.80;;;13.70;;
10811;SDS011;5458;51.496;7.334;2022-11-14T11:24:51;13.75;;;11.60;;
10811;SDS011;5458;51.496;7.334;2022-11-14T11:29:44;14.10;;;11.13;;
10811;SDS011;5458;51.496;7.334;2022-11-14T11:32:10;13.73;;;11.50;;
10811;SDS011;5458;51.496;7.334;2022-11-14T11:34:47;15.60;;;11.93;;
10811;SDS011;5458;51.496;7.334;2022-11-14T11:37:14;13.85;;;11.27;;
10811;SDS011;5458;51.496;7.334;2022-11-14T11:39:54;13.23;;;11.30;;
10811;SDS011;5458;51.496;7.334;2022-11-14T11:42:27;12.63;;;10.63;;
10811;SDS011;5458;51.496;7.334;2022-11-14T11:45:09;13.23;;;10.90;;
10811;SDS011;5458;51.496;7.334;2022-11-14T11:47:41;13.35;;;10.57;;
10811;SDS011;5458;51.496;7.334;2022-11-14T11:50:13;13.52;;;11.15;;
10811;SDS011;5458;51.496;7.334;2022-11-14T11:55:26;13.02;;;9.27;;
10811;SDS011;5458;51.496;7.334;2022-11-14T11:58:04;14.32;;;10.77;;
10811;SDS011;5458;51.496;7.334;2022-11-14T12:00:36;10.98;;;9.13;;
10811;SDS011;5458;51.496;7.334;2022-11-14T12:03:02;12.13;;;9.85;;
10811;SDS011;5458;51.496;7.334;2022-11-14T12:05:38;12.90;;;10.75;;
10811;SDS011;5458;51.496;7.334;2022-11-14T12:08:17;12.90;;;10.18;;
10811;SDS011;5458;51.496;7.334;2022-11-14T12:10:54;14.02;;;10.05;;
10811;SDS011;5458;51.496;7.334;2022-11-14T12:26:53;11.75;;;9.50;;
10811;SDS011;5458;51.496;7.334;2022-11-14T12:30:11;10.52;;;8.75;;
10811;SDS011;5458;51.496;7.334;2022-11-14T12:32:27;12.18;;;8.77;;
10811;SDS011;5458;51.496;7.334;2022-11-14T12:34:58;11.93;;;9.18;;
10811;SDS011;5458;51.496;7.334;2022-11-14T12:37:35;11.63;;;8.77;;
10811;SDS011;5458;51.496;7.334;2022-11-14T12:40:06;10.98;;;8.20;;
10811;SDS011;5458;51.496;7.334;2022-11-14T12:42:57;8.88;;;7.97;;
10811;SDS011;5458;51.496;7.334;2022-11-14T12:48:14;13.07;;;8.95;;
10811;SDS011;5458;51.496;7.334;2022-11-14T12:50:46;9.40;;;7.97;;
10811;SDS011;5458;51.496;7.334;2022-11-14T12:58:40;10.38;;;8.20;;
10811;SDS011;5458;51.496;7.334;2022-11-14T13:04:02;9.68;;;7.88;;
10811;SDS011;5458;51.496;7.334;2022-11-14T13:09:38;10.45;;;8.27;;
10811;SDS011;5458;51.496;7.334;2022-11-14T13:12:27;10.70;;;8.23;;
10811;SDS011;5458;51.496;7.334;2022-11-14T13:15:30;13.15;;;9.63;;
10811;SDS011;5458;51.496;7.334;2022-11-14T13:21:00;10.40;;;8.30;;
10811;SDS011;5458;51.496;7.334;2022-11-14T13:28:50;10.60;;;8.52;;
10811;SDS011;5458;51.496;7.334;2022-11-14T13:33:44;11.55;;;9.10;;
10811;SDS011;5458;51.496;7.334;2022-11-14T13:38:52;9.30;;;7.85;;
10811;SDS011;5458;51.496;7.334;2022-11-14T13:46:43;10.80;;;8.55;;
10811;SDS011;5458;51.496;7.334;2022-11-14T13:52:16;11.38;;;9.20;;
10811;SDS011;5458;51.496;7.334;2022-11-14T13:54:45;10.40;;;8.15;;
10811;SDS011;5458;51.496;7.334;2022-11-14T13:57:14;9.60;;;8.32;;
10811;SDS011;5458;51.496;7.334;2022-11-14T14:02:49;9.82;;;8.52;;
10811;SDS011;5458;51.496;7.334;2022-11-14T14:05:53;8.80;;;7.55;;
10811;SDS011;5458;51.496;7.334;2022-11-14T14:17:06;10.05;;;8.80;;
10811;SDS011;5458;51.496;7.334;2022-11-14T14:22:29;10.68;;;8.90;;
10811;SDS011;5458;51.496;7.334;2022-11-14T14:30:16;20.20;;;13.32;;
10811;SDS011;5458;51.496;7.334;2022-11-14T14:32:43;12.38;;;9.77;;
10811;SDS011;5458;51.496;7.334;2022-11-14T14:35:32;11.75;;;9.40;;
10811;SDS011;5458;51.496;7.334;2022-11-14T14:37:59;11.60;;;8.98;;
10811;SDS011;5458;51.496;7.334;2022-11-14T14:40:27;9.95;;;8.52;;
10811;SDS011;5458;51.496;7.334;2022-11-14T14:42:55;11.45;;;9.63;;
10811;SDS011;5458;51.496;7.334;2022-11-14T14:45:23;11.30;;;9.52;;
10811;SDS011;5458;51.496;7.334;2022-11-14T14:53:26;11.10;;;9.32;;
10811;SDS011;5458;51.496;7.334;2022-11-14T14:56:00;12.27;;;9.40;;
10811;SDS011;5458;51.496;7.334;2022-11-14T14:58:31;10.15;;;8.65;;
10811;SDS011;5458;51.496;7.334;2022-11-14T15:06:01;9.63;;;8.63;;
10811;SDS011;5458;51.496;7.334;2022-11-14T15:08:53;10.80;;;8.95;;
10811;SDS011;5458;51.496;7.334;2022-11-14T15:11:20;10.77;;;9.25;;
10811;SDS011;5458;51.496;7.334;2022-11-14T15:13:48;13.90;;;9.32;;
10811;SDS011;5458;51.496;7.334;2022-11-14T15:16:17;12.30;;;9.88;;
10811;SDS011;5458;51.496;7.334;2022-11-14T15:18:43;11.38;;;9.93;;
10811;SDS011;5458;51.496;7.334;2022-11-14T15:21:15;13.50;;;9.45;;
10811;SDS011;5458;51.496;7.334;2022-11-14T15:24:02;12.57;;;10.15;;
10811;SDS011;5458;51.496;7.334;2022-11-14T15:26:38;13.02;;;9.55;;
10811;SDS011;5458;51.496;7.334;2022-11-14T15:29:28;10.88;;;9.07;;
10811;SDS011;5458;51.496;7.334;2022-11-14T15:31:56;12.68;;;10.00;;
10811;SDS011;5458;51.496;7.334;2022-11-14T15:34:28;10.85;;;8.80;;
10811;SDS011;5458;51.496;7.334;2022-11-14T15:37:06;10.98;;;9.77;;
10811;SDS011;5458;51.496;7.334;2022-11-14T15:39:32;12.75;;;9.93;;
10811;SDS011;5458;51.496;7.334;2022-11-14T15:44:51;11.60;;;9.52;;
10811;SDS011;5458;51.496;7.334;2022-11-14T15:47:18;10.50;;;9.02;;
10811;SDS011;5458;51.496;7.334;2022-11-14T15:49:56;14.13;;;10.35;;
10811;SDS011;5458;51.496;7.334;2022-11-14T15:52:29;12.27;;;9.05;;
10811;SDS011;5458;51.496;7.334;2022-11-14T15:54:58;11.57;;;8.95;;
10811;SDS011;5458;51.496;7.334;2022-11-14T15:57:23;10.85;;;9.25;;
10811;SDS011;5458;51.496;7.334;2022-11-14T15:59:49;10.68;;;8.98;;
10811;SDS011;5458;51.496;7.334;2022-11-14T16:02:15;13.63;;;9.75;;
10811;SDS011;5458;51.496;7.334;2022-11-14T16:04:44;12.82;;;9.32;;
10811;SDS011;5458;51.496;7.334;2022-11-14T16:07:11;10.02;;;9.00;;
10811;SDS011;5458;51.496;7.334;2022-11-14T16:09:37;10.55;;;9.27;;
10811;SDS011;5458;51.496;7.334;2022-11-14T16:12:03;11.30;;;9.55;;
10811;SDS011;5458;51.496;7.334;2022-11-14T16:14:29;12.07;;;10.02;;
10811;SDS011;5458;51.496;7.334;2022-11-14T16:16:55;12.25;;;10.50;;
10811;SDS011;5458;51.496;7.334;2022-11-14T16:19:20;11.30;;;9.98;;
10811;SDS011;5458;51.496;7.334;2022-11-14T16:21:46;11.05;;;9.60;;
10811;SDS011;5458;51.496;7.334;2022-11-14T16:24:13;10.07;;;8.88;;
10811;SDS011;5458;51.496;7.334;2022-11-14T16:26:43;14.88;;;9.70;;
10811;SDS011;5458;51.496;7.334;2022-11-14T16:29:08;13.63;;;10.05;;
10811;SDS011;5458;51.496;7.334;2022-11-14T16:31:34;11.98;;;10.23;;
10811;SDS011;5458;51.496;7.334;2022-11-14T16:34:00;12.57;;;9.65;;
10811;SDS011;5458;51.496;7.334;2022-11-14T16:36:26;13.23;;;9.55;;
10811;SDS011;5458;51.496;7.334;2022-11-14T16:38:52;11.48;;;9.75;;
10811;SDS011;5458;51.496;7.334;2022-11-14T16:41:23;12.75;;;9.75;;
10811;SDS011;5458;51.496;7.334;2022-11-14T16:43:49;12.90;;;10.32;;
10811;SDS011;5458;51.496;7.334;2022-11-14T16:46:19;11.70;;;9.43;;
10811;SDS011;5458;51.496;7.334;2022-11-14T16:48:45;11.85;;;9.73;;
10811;SDS011;5458;51.496;7.334;2022-11-14T16:51:10;11.88;;;9.48;;